Central Lakes, Minnesota
Current Conditions -  °F | °C
As of 8:31 PM on Sunday 23 Nov 2014 (Local Time) from KEVM Reporting Station
Drizzle Drizzle  
Wind Chill: 28°   Ceiling: 300
Heat Index: 34°   Visibility: 2mi
Dew Point: 34°   Wind: 7mph
Humidity: 100%   Direction: 330°NNW
Pressure: 29.37"   Gusts: NA
Location:  47.4232°N, 92.5107°W
Report Text: KEVM 240231Z AUTO 33006KT 2SM -DZ OVC003 01/01 A2937 RMK AO2
Loading
Personal Weather Stations






























Interactive Weather Map New forecast layout! Learn more

10-Day Weather Forecast

Advertisements
Track Severe Weather on mobile